sensor_id;sensor_type;location;lat;lon;timestamp;pressure;altitude;pressure_sealevel;temperature;humidity
70730;BME280;58315;53.336;55.932;2023-07-29T00:00:58;99266.84;;;24.35;49.47
70730;BME280;58315;53.336;55.932;2023-07-29T00:03:27;99266.72;;;24.30;49.74
70730;BME280;58315;53.336;55.932;2023-07-29T00:05:53;99267.31;;;24.20;50.11
70730;BME280;58315;53.336;55.932;2023-07-29T00:08:19;99266.59;;;24.13;50.31
70730;BME280;58315;53.336;55.932;2023-07-29T00:10:46;99274.50;;;24.15;50.05
70730;BME280;58315;53.336;55.932;2023-07-29T00:13:12;99274.13;;;24.11;50.26
70730;BME280;58315;53.336;55.932;2023-07-29T00:15:37;99280.00;;;24.08;50.28
70730;BME280;58315;53.336;55.932;2023-07-29T00:18:03;99270.97;;;24.02;50.51
70730;BME280;58315;53.336;55.932;2023-07-29T00:20:29;99272.25;;;24.00;50.67
70730;BME280;58315;53.336;55.932;2023-07-29T00:22:55;99266.25;;;23.98;50.87
70730;BME280;58315;53.336;55.932;2023-07-29T00:25:23;99259.94;;;24.04;50.62
70730;BME280;58315;53.336;55.932;2023-07-29T00:27:49;99265.78;;;24.13;50.50
70730;BME280;58315;53.336;55.932;2023-07-29T00:30:16;99267.47;;;24.14;50.37
70730;BME280;58315;53.336;55.932;2023-07-29T00:32:42;99262.88;;;24.14;50.59
70730;BME280;58315;53.336;55.932;2023-07-29T00:35:08;99266.97;;;24.17;50.46
70730;BME280;58315;53.336;55.932;2023-07-29T00:37:36;99266.97;;;24.17;50.58
70730;BME280;58315;53.336;55.932;2023-07-29T00:40:20;99274.63;;;24.43;50.45
70730;BME280;58315;53.336;55.932;2023-07-29T00:42:48;99270.97;;;24.26;50.94
70730;BME280;58315;53.336;55.932;2023-07-29T00:45:15;99268.72;;;24.23;51.10
70730;BME280;58315;53.336;55.932;2023-07-29T00:47:42;99265.44;;;24.33;51.00
70730;BME280;58315;53.336;55.932;2023-07-29T00:50:09;99269.88;;;24.39;51.03
70730;BME280;58315;53.336;55.932;2023-07-29T00:52:37;99266.06;;;24.46;50.89
70730;BME280;58315;53.336;55.932;2023-07-29T00:55:04;99274.97;;;24.59;50.58
70730;BME280;58315;53.336;55.932;2023-07-29T00:57:32;99259.91;;;24.63;50.73
70730;BME280;58315;53.336;55.932;2023-07-29T00:59:59;99264.84;;;24.66;50.43
70730;BME280;58315;53.336;55.932;2023-07-29T01:02:26;99270.34;;;24.71;50.63
70730;BME280;58315;53.336;55.932;2023-07-29T01:04:54;99276.44;;;24.78;50.55
70730;BME280;58315;53.336;55.932;2023-07-29T01:07:51;99280.03;;;24.95;50.59
70730;BME280;58315;53.336;55.932;2023-07-29T01:12:59;99281.81;;;24.90;50.55
70730;BME280;58315;53.336;55.932;2023-07-29T01:18:29;99286.53;;;25.35;49.30
70730;BME280;58315;53.336;55.932;2023-07-29T01:20:59;99294.09;;;25.49;49.01
70730;BME280;58315;53.336;55.932;2023-07-29T01:23:29;99291.25;;;25.56;48.71
70730;BME280;58315;53.336;55.932;2023-07-29T01:25:57;99293.50;;;25.47;48.43
70730;BME280;58315;53.336;55.932;2023-07-29T01:28:24;99289.25;;;25.52;48.15
70730;BME280;58315;53.336;55.932;2023-07-29T01:31:01;99297.38;;;25.52;48.11
70730;BME280;58315;53.336;55.932;2023-07-29T01:33:39;99301.31;;;25.61;48.14
70730;BME280;58315;53.336;55.932;2023-07-29T01:36:11;99299.53;;;25.66;48.13
70730;BME280;58315;53.336;55.932;2023-07-29T01:38:41;99300.59;;;25.65;47.87
70730;BME280;58315;53.336;55.932;2023-07-29T01:41:08;99304.03;;;25.61;47.45
70730;BME280;58315;53.336;55.932;2023-07-29T01:43:36;99302.97;;;25.62;47.64
70730;BME280;58315;53.336;55.932;2023-07-29T01:46:10;99308.47;;;25.67;47.58
70730;BME280;58315;53.336;55.932;2023-07-29T01:48:38;99307.97;;;25.70;47.51
70730;BME280;58315;53.336;55.932;2023-07-29T01:51:05;99305.66;;;25.62;48.23
70730;BME280;58315;53.336;55.932;2023-07-29T01:53:31;99301.88;;;25.63;47.99
70730;BME280;58315;53.336;55.932;2023-07-29T01:55:57;99309.38;;;25.72;48.20
70730;BME280;58315;53.336;55.932;2023-07-29T01:58:24;99306.06;;;25.82;47.95
70730;BME280;58315;53.336;55.932;2023-07-29T02:00:50;99313.78;;;25.90;48.22
70730;BME280;58315;53.336;55.932;2023-07-29T02:03:17;99312.69;;;25.91;47.93
70730;BME280;58315;53.336;55.932;2023-07-29T02:05:43;99314.09;;;25.94;48.07
70730;BME280;58315;53.336;55.932;2023-07-29T02:08:12;99305.56;;;26.02;48.18
70730;BME280;58315;53.336;55.932;2023-07-29T02:10:38;99302.78;;;26.14;47.69
70730;BME280;58315;53.336;55.932;2023-07-29T02:13:04;99305.91;;;26.23;47.95
70730;BME280;58315;53.336;55.932;2023-07-29T02:15:31;99314.91;;;26.28;47.65
70730;BME280;58315;53.336;55.932;2023-07-29T02:17:57;99304.22;;;26.38;47.68
70730;BME280;58315;53.336;55.932;2023-07-29T02:20:25;99302.25;;;26.51;47.53
70730;BME280;58315;53.336;55.932;2023-07-29T02:22:51;99291.25;;;26.57;46.94
70730;BME280;58315;53.336;55.932;2023-07-29T02:25:18;99296.94;;;26.56;47.59
70730;BME280;58315;53.336;55.932;2023-07-29T02:27:45;99293.47;;;26.60;47.48
70730;BME280;58315;53.336;55.932;2023-07-29T02:30:11;99280.50;;;26.62;47.40
70730;BME280;58315;53.336;55.932;2023-07-29T02:32:38;99285.66;;;26.64;47.64
70730;BME280;58315;53.336;55.932;2023-07-29T02:35:05;99288.50;;;26.74;47.65
70730;BME280;58315;53.336;55.932;2023-07-29T02:37:31;99294.38;;;26.88;47.86
70730;BME280;58315;53.336;55.932;2023-07-29T02:39:57;99279.66;;;27.06;47.25
70730;BME280;58315;53.336;55.932;2023-07-29T02:42:23;99284.50;;;27.21;47.65
70730;BME280;58315;53.336;55.932;2023-07-29T02:44:50;99286.75;;;27.29;47.48
70730;BME280;58315;53.336;55.932;2023-07-29T02:47:15;99287.91;;;27.38;47.11
70730;BME280;58315;53.336;55.932;2023-07-29T02:49:41;99294.53;;;27.47;47.08
70730;BME280;58315;53.336;55.932;2023-07-29T02:52:08;99293.34;;;27.65;47.04
70730;BME280;58315;53.336;55.932;2023-07-29T02:54:34;99287.00;;;27.81;46.86
70730;BME280;58315;53.336;55.932;2023-07-29T02:57:00;99290.63;;;27.92;46.57
70730;BME280;58315;53.336;55.932;2023-07-29T02:59:27;99278.44;;;27.95;46.44
70730;BME280;58315;53.336;55.932;2023-07-29T03:01:53;99274.72;;;28.06;45.89
70730;BME280;58315;53.336;55.932;2023-07-29T03:04:20;99280.16;;;28.11;45.22
70730;BME280;58315;53.336;55.932;2023-07-29T03:06:46;99269.59;;;28.09;44.98
70730;BME280;58315;53.336;55.932;2023-07-29T03:09:14;99277.13;;;28.40;45.43
70730;BME280;58315;53.336;55.932;2023-07-29T03:11:40;99274.81;;;29.31;44.70
70730;BME280;58315;53.336;55.932;2023-07-29T03:14:07;99280.84;;;30.41;42.73
70730;BME280;58315;53.336;55.932;2023-07-29T03:16:33;99278.19;;;31.55;40.60
70730;BME280;58315;53.336;55.932;2023-07-29T03:19:00;99280.28;;;32.61;39.35
70730;BME280;58315;53.336;55.932;2023-07-29T03:21:27;99276.81;;;33.41;38.21
70730;BME280;58315;53.336;55.932;2023-07-29T03:23:53;99278.66;;;34.16;36.36
70730;BME280;58315;53.336;55.932;2023-07-29T03:26:19;99283.59;;;35.02;35.34
70730;BME280;58315;53.336;55.932;2023-07-29T03:28:45;99289.38;;;35.50;33.76
70730;BME280;58315;53.336;55.932;2023-07-29T03:31:11;99284.94;;;36.00;33.39
70730;BME280;58315;53.336;55.932;2023-07-29T03:33:37;99290.78;;;36.38;32.91
70730;BME280;58315;53.336;55.932;2023-07-29T03:36:03;99296.16;;;36.74;32.31
70730;BME280;58315;53.336;55.932;2023-07-29T03:38:29;99297.53;;;37.03;31.76
70730;BME280;58315;53.336;55.932;2023-07-29T03:40:57;99297.16;;;37.53;31.15
70730;BME280;58315;53.336;55.932;2023-07-29T03:43:23;99292.72;;;37.86;30.34
70730;BME280;58315;53.336;55.932;2023-07-29T03:45:49;99292.16;;;38.28;29.61
70730;BME280;58315;53.336;55.932;2023-07-29T03:48:15;99278.97;;;38.51;29.97
70730;BME280;58315;53.336;55.932;2023-07-29T03:50:41;99282.75;;;38.38;28.75
70730;BME280;58315;53.336;55.932;2023-07-29T03:53:07;99274.50;;;38.67;28.74
70730;BME280;58315;53.336;55.932;2023-07-29T03:55:35;99274.44;;;38.85;28.17
70730;BME280;58315;53.336;55.932;2023-07-29T03:58:01;99271.63;;;38.93;28.04
70730;BME280;58315;53.336;55.932;2023-07-29T04:00:28;99277.50;;;38.92;28.31
70730;BME280;58315;53.336;55.932;2023-07-29T04:02:54;99278.69;;;39.53;27.33
70730;BME280;58315;53.336;55.932;2023-07-29T04:05:21;99283.09;;;39.88;27.62
70730;BME280;58315;53.336;55.932;2023-07-29T04:07:48;99291.41;;;40.00;26.40
70730;BME280;58315;53.336;55.932;2023-07-29T04:10:14;99280.56;;;39.83;26.43
70730;BME280;58315;53.336;55.932;2023-07-29T04:12:41;99283.34;;;40.07;26.76
70730;BME280;58315;53.336;55.932;2023-07-29T04:15:07;99279.31;;;40.38;26.32
70730;BME280;58315;53.336;55.932;2023-07-29T04:17:34;99273.22;;;40.57;26.52
70730;BME280;58315;53.336;55.932;2023-07-29T04:20:00;99279.06;;;41.16;26.03
70730;BME280;58315;53.336;55.932;2023-07-29T04:22:32;99268.47;;;41.75;25.23
70730;BME280;58315;53.336;55.932;2023-07-29T04:24:58;99272.66;;;42.12;25.21
70730;BME280;58315;53.336;55.932;2023-07-29T04:27:25;99273.41;;;42.09;24.99
70730;BME280;58315;53.336;55.932;2023-07-29T04:29:51;99258.50;;;41.86;23.65
70730;BME280;58315;53.336;55.932;2023-07-29T04:32:17;99258.34;;;41.66;24.20
70730;BME280;58315;53.336;55.932;2023-07-29T04:34:43;99254.81;;;42.26;24.07
70730;BME280;58315;53.336;55.932;2023-07-29T04:37:09;99258.91;;;42.63;24.26
70730;BME280;58315;53.336;55.932;2023-07-29T04:39:36;99259.19;;;43.09;23.68
70730;BME280;58315;53.336;55.932;2023-07-29T04:42:02;99256.72;;;43.24;23.07
70730;BME280;58315;53.336;55.932;2023-07-29T04:44:28;99257.91;;;43.62;23.13
70730;BME280;58315;53.336;55.932;2023-07-29T04:46:54;99262.31;;;44.05;22.63
70730;BME280;58315;53.336;55.932;2023-07-29T04:49:20;99271.13;;;44.07;22.66
70730;BME280;58315;53.336;55.932;2023-07-29T04:51:47;99269.31;;;44.18;23.04
70730;BME280;58315;53.336;55.932;2023-07-29T04:54:13;99272.34;;;44.10;22.33
70730;BME280;58315;53.336;55.932;2023-07-29T04:56:40;99257.84;;;43.77;22.09
70730;BME280;58315;53.336;55.932;2023-07-29T04:59:08;99258.16;;;43.95;22.05
70730;BME280;58315;53.336;55.932;2023-07-29T05:01:35;99252.34;;;43.81;22.39
70730;BME280;58315;53.336;55.932;2023-07-29T05:04:01;99254.03;;;44.32;21.78
70730;BME280;58315;53.336;55.932;2023-07-29T05:06:28;99256.09;;;44.84;21.86
70730;BME280;58315;53.336;55.932;2023-07-29T05:08:57;99255.34;;;45.47;21.42
70730;BME280;58315;53.336;55.932;2023-07-29T05:11:24;99251.03;;;45.54;20.55
70730;BME280;58315;53.336;55.932;2023-07-29T05:13:51;99248.50;;;45.11;20.62
70730;BME280;58315;53.336;55.932;2023-07-29T05:16:17;99243.34;;;44.87;20.86
70730;BME280;58315;53.336;55.932;2023-07-29T05:18:44;99233.50;;;45.23;21.25
70730;BME280;58315;53.336;55.932;2023-07-29T05:21:10;99239.38;;;45.44;20.80
70730;BME280;58315;53.336;55.932;2023-07-29T05:23:40;99245.16;;;45.62;20.50
70730;BME280;58315;53.336;55.932;2023-07-29T05:26:07;99240.72;;;45.95;20.26
70730;BME280;58315;53.336;55.932;2023-07-29T05:28:33;99240.44;;;45.70;19.58
70730;BME280;58315;53.336;55.932;2023-07-29T05:31:01;99230.84;;;45.64;19.54
70730;BME280;58315;53.336;55.932;2023-07-29T05:33:28;99231.03;;;45.48;18.50
70730;BME280;58315;53.336;55.932;2023-07-29T05:35:54;99230.97;;;45.11;19.65
70730;BME280;58315;53.336;55.932;2023-07-29T05:38:21;99226.44;;;45.29;19.58
70730;BME280;58315;53.336;55.932;2023-07-29T05:40:50;99223.91;;;45.51;19.88
70730;BME280;58315;53.336;55.932;2023-07-29T05:43:16;99216.06;;;45.63;19.91
70730;BME280;58315;53.336;55.932;2023-07-29T05:45:43;99213.34;;;46.08;19.66
70730;BME280;58315;53.336;55.932;2023-07-29T06:24:23;99178.94;;;46.45;18.72
70730;BME280;58315;53.336;55.932;2023-07-29T06:26:50;99167.63;;;45.82;18.29
70730;BME280;58315;53.336;55.932;2023-07-29T06:29:16;99163.69;;;44.82;18.55
70730;BME280;58315;53.336;55.932;2023-07-29T06:31:42;99175.59;;;44.26;18.89
70730;BME280;58315;53.336;55.932;2023-07-29T06:34:08;99172.06;;;43.60;18.80
70730;BME280;58315;53.336;55.932;2023-07-29T06:36:34;99173.50;;;42.41;20.33
70730;BME280;58315;53.336;55.932;2023-07-29T06:39:00;99172.03;;;41.68;21.21
70730;BME280;58315;53.336;55.932;2023-07-29T06:41:26;99172.63;;;40.53;22.34
70730;BME280;58315;53.336;55.932;2023-07-29T06:43:52;99177.53;;;39.86;22.44
70730;BME280;58315;53.336;55.932;2023-07-29T06:46:19;99183.06;;;39.52;23.01
70730;BME280;58315;53.336;55.932;2023-07-29T06:48:45;99190.81;;;39.26;23.50
70730;BME280;58315;53.336;55.932;2023-07-29T06:51:11;99192.34;;;38.94;23.76
70730;BME280;58315;53.336;55.932;2023-07-29T06:53:38;99194.28;;;38.93;23.69
70730;BME280;58315;53.336;55.932;2023-07-29T06:56:03;99192.28;;;38.52;23.96
70730;BME280;58315;53.336;55.932;2023-07-29T06:58:30;99187.63;;;37.88;24.70
70730;BME280;58315;53.336;55.932;2023-07-29T07:00:57;99180.75;;;37.21;25.32
70730;BME280;58315;53.336;55.932;2023-07-29T07:03:23;99177.38;;;37.24;25.77
70730;BME280;58315;53.336;55.932;2023-07-29T07:05:50;99171.69;;;37.29;25.33
70730;BME280;58315;53.336;55.932;2023-07-29T07:08:16;99173.47;;;37.25;26.02
70730;BME280;58315;53.336;55.932;2023-07-29T07:10:42;99173.31;;;37.13;25.83
70730;BME280;58315;53.336;55.932;2023-07-29T07:13:08;99182.56;;;37.08;25.87
70730;BME280;58315;53.336;55.932;2023-07-29T07:15:34;99173.81;;;37.24;25.68
70730;BME280;58315;53.336;55.932;2023-07-29T07:18:00;99175.75;;;37.32;25.87
70730;BME280;58315;53.336;55.932;2023-07-29T07:20:26;99163.88;;;37.40;25.86
70730;BME280;58315;53.336;55.932;2023-07-29T07:22:52;99160.03;;;37.50;25.68
70730;BME280;58315;53.336;55.932;2023-07-29T07:25:19;99159.50;;;37.65;25.72
70730;BME280;58315;53.336;55.932;2023-07-29T07:27:46;99157.69;;;37.69;25.61
70730;BME280;58315;53.336;55.932;2023-07-29T07:30:12;99155.81;;;37.52;25.30
70730;BME280;58315;53.336;55.932;2023-07-29T07:32:38;99158.22;;;37.36;25.55
70730;BME280;58315;53.336;55.932;2023-07-29T07:35:04;99150.47;;;37.47;25.64
70730;BME280;58315;53.336;55.932;2023-07-29T07:37:31;99151.41;;;37.60;25.47
70730;BME280;58315;53.336;55.932;2023-07-29T07:39:57;99158.25;;;37.45;25.47
70730;BME280;58315;53.336;55.932;2023-07-29T07:42:23;99151.94;;;37.27;25.99
70730;BME280;58315;53.336;55.932;2023-07-29T07:44:49;99156.81;;;36.96;25.76
70730;BME280;58315;53.336;55.932;2023-07-29T07:47:15;99152.88;;;36.79;25.70
70730;BME280;58315;53.336;55.932;2023-07-29T07:49:42;99148.03;;;36.93;26.78
70730;BME280;58315;53.336;55.932;2023-07-29T07:52:08;99149.66;;;36.94;26.18
70730;BME280;58315;53.336;55.932;2023-07-29T07:54:34;99149.66;;;36.94;26.42
70730;BME280;58315;53.336;55.932;2023-07-29T07:57:00;99140.75;;;37.15;26.38
70730;BME280;58315;53.336;55.932;2023-07-29T07:59:26;99138.50;;;37.17;26.32
70730;BME280;58315;53.336;55.932;2023-07-29T08:01:52;99139.44;;;37.21;26.75
70730;BME280;58315;53.336;55.932;2023-07-29T08:04:18;99133.94;;;37.38;26.62
70730;BME280;58315;53.336;55.932;2023-07-29T08:06:44;99136.81;;;37.59;26.91
70730;BME280;58315;53.336;55.932;2023-07-29T08:09:10;99125.97;;;37.54;26.87
70730;BME280;58315;53.336;55.932;2023-07-29T08:11:36;99135.69;;;37.52;26.47
70730;BME280;58315;53.336;55.932;2023-07-29T08:14:02;99129.41;;;37.16;26.56
70730;BME280;58315;53.336;55.932;2023-07-29T08:16:29;99124.09;;;37.03;26.65
70730;BME280;58315;53.336;55.932;2023-07-29T08:18:55;99124.53;;;37.22;26.79
70730;BME280;58315;53.336;55.932;2023-07-29T08:21:21;99127.59;;;37.38;26.52
70730;BME280;58315;53.336;55.932;2023-07-29T08:23:47;99135.06;;;37.37;26.26
70730;BME280;58315;53.336;55.932;2023-07-29T08:26:13;99124.38;;;37.45;26.80
70730;BME280;58315;53.336;55.932;2023-07-29T08:28:39;99130.03;;;37.57;26.49
70730;BME280;58315;53.336;55.932;2023-07-29T08:31:06;99127.13;;;37.53;26.19
70730;BME280;58315;53.336;55.932;2023-07-29T08:33:32;99129.72;;;37.41;26.18
70730;BME280;58315;53.336;55.932;2023-07-29T08:36:02;99126.31;;;37.44;26.66
70730;BME280;58315;53.336;55.932;2023-07-29T08:38:28;99129.72;;;37.50;26.49
70730;BME280;58315;53.336;55.932;2023-07-29T08:41:16;99122.00;;;37.81;26.47
70730;BME280;58315;53.336;55.932;2023-07-29T08:43:56;99116.81;;;37.88;26.45
70730;BME280;58315;53.336;55.932;2023-07-29T08:46:25;99112.72;;;37.86;26.61
70730;BME280;58315;53.336;55.932;2023-07-29T08:48:52;99117.59;;;37.80;26.18
70730;BME280;58315;53.336;55.932;2023-07-29T08:51:19;99113.25;;;37.79;26.47
70730;BME280;58315;53.336;55.932;2023-07-29T08:53:46;99101.97;;;37.63;26.25
70730;BME280;58315;53.336;55.932;2023-07-29T08:56:12;99109.94;;;37.56;25.83
70730;BME280;58315;53.336;55.932;2023-07-29T08:58:39;99099.09;;;37.43;26.12
70730;BME280;58315;53.336;55.932;2023-07-29T09:01:06;99092.47;;;37.17;26.48
70730;BME280;58315;53.336;55.932;2023-07-29T09:03:32;99093.75;;;37.37;26.54
70730;BME280;58315;53.336;55.932;2023-07-29T09:05:59;99092.59;;;37.38;25.55
70730;BME280;58315;53.336;55.932;2023-07-29T09:08:26;99096.66;;;37.41;26.08
70730;BME280;58315;53.336;55.932;2023-07-29T09:10:54;99086.13;;;37.34;26.16
70730;BME280;58315;53.336;55.932;2023-07-29T09:13:21;99104.25;;;37.53;26.00
70730;BME280;58315;53.336;55.932;2023-07-29T09:15:47;99095.16;;;37.61;25.76
70730;BME280;58315;53.336;55.932;2023-07-29T09:18:19;99086.66;;;37.75;25.83
70730;BME280;58315;53.336;55.932;2023-07-29T09:20:49;99080.88;;;37.59;26.07
70730;BME280;58315;53.336;55.932;2023-07-29T09:23:16;99087.25;;;37.33;25.78
70730;BME280;58315;53.336;55.932;2023-07-29T09:25:42;99073.03;;;37.23;25.83
70730;BME280;58315;53.336;55.932;2023-07-29T09:28:14;99077.38;;;37.41;25.81
70730;BME280;58315;53.336;55.932;2023-07-29T09:30:44;99072.41;;;37.17;25.31
70730;BME280;58315;53.336;55.932;2023-07-29T09:33:10;99074.38;;;36.99;25.61
70730;BME280;58315;53.336;55.932;2023-07-29T09:35:38;99071.94;;;36.98;26.01
70730;BME280;58315;53.336;55.932;2023-07-29T09:38:05;99063.81;;;37.10;25.98
70730;BME280;58315;53.336;55.932;2023-07-29T09:40:39;99066.41;;;37.24;25.64
70730;BME280;58315;53.336;55.932;2023-07-29T09:43:07;99052.47;;;37.20;25.74
70730;BME280;58315;53.336;55.932;2023-07-29T09:45:34;99059.88;;;37.28;26.05
70730;BME280;58315;53.336;55.932;2023-07-29T09:48:01;99058.59;;;37.34;25.96
70730;BME280;58315;53.336;55.932;2023-07-29T09:50:29;99058.94;;;37.24;25.59
70730;BME280;58315;53.336;55.932;2023-07-29T09:52:56;99050.41;;;37.08;25.75
70730;BME280;58315;53.336;55.932;2023-07-29T09:55:24;99045.19;;;37.15;26.18
70730;BME280;58315;53.336;55.932;2023-07-29T09:57:56;99050.97;;;37.31;26.11
70730;BME280;58315;53.336;55.932;2023-07-29T10:00:24;99046.47;;;37.18;26.37
70730;BME280;58315;53.336;55.932;2023-07-29T10:02:50;99045.78;;;37.30;26.00
70730;BME280;58315;53.336;55.932;2023-07-29T10:05:17;99052.31;;;37.16;25.93
70730;BME280;58315;53.336;55.932;2023-07-29T10:07:44;99052.81;;;37.10;25.99
70730;BME280;58315;53.336;55.932;2023-07-29T10:10:12;99047.94;;;37.07;26.18
70730;BME280;58315;53.336;55.932;2023-07-29T10:12:39;99049.75;;;37.03;26.34
70730;BME280;58315;53.336;55.932;2023-07-29T10:15:08;99053.63;;;37.10;26.36
70730;BME280;58315;53.336;55.932;2023-07-29T10:17:36;99056.53;;;37.14;26.57
70730;BME280;58315;53.336;55.932;2023-07-29T10:20:07;99052.78;;;37.27;26.13
70730;BME280;58315;53.336;55.932;2023-07-29T10:22:39;99047.25;;;37.27;26.24
70730;BME280;58315;53.336;55.932;2023-07-29T10:25:17;99043.81;;;37.48;25.94
70730;BME280;58315;53.336;55.932;2023-07-29T10:27:48;99050.78;;;37.36;25.92
70730;BME280;58315;53.336;55.932;2023-07-29T10:30:15;99038.50;;;37.25;25.94
70730;BME280;58315;53.336;55.932;2023-07-29T10:32:43;99042.53;;;37.36;26.08
70730;BME280;58315;53.336;55.932;2023-07-29T10:35:14;99045.75;;;37.47;26.16
70730;BME280;58315;53.336;55.932;2023-07-29T10:37:41;99038.34;;;37.30;25.63
70730;BME280;58315;53.336;55.932;2023-07-29T10:40:09;99036.91;;;37.24;25.78
70730;BME280;58315;53.336;55.932;2023-07-29T10:42:38;99033.97;;;37.29;26.07
70730;BME280;58315;53.336;55.932;2023-07-29T10:45:24;99034.56;;;37.52;25.87
70730;BME280;58315;53.336;55.932;2023-07-29T10:47:50;99039.47;;;37.29;26.45
70730;BME280;58315;53.336;55.932;2023-07-29T10:50:19;99030.25;;;37.34;26.09
70730;BME280;58315;53.336;55.932;2023-07-29T10:52:49;99030.03;;;37.48;25.57
70730;BME280;58315;53.336;55.932;2023-07-29T10:55:32;99033.88;;;37.64;25.46
70730;BME280;58315;53.336;55.932;2023-07-29T10:58:07;99027.91;;;37.53;25.62
70730;BME280;58315;53.336;55.932;2023-07-29T11:00:34;99022.78;;;37.34;25.40
70730;BME280;58315;53.336;55.932;2023-07-29T11:03:07;99023.56;;;37.44;25.01
70730;BME280;58315;53.336;55.932;2023-07-29T11:05:46;99015.94;;;37.40;25.46
70730;BME280;58315;53.336;55.932;2023-07-29T11:08:31;99014.19;;;37.45;25.66
70730;BME280;58315;53.336;55.932;2023-07-29T11:11:08;99011.25;;;37.41;25.70
70730;BME280;58315;53.336;55.932;2023-07-29T11:13:38;99007.00;;;37.05;25.82
70730;BME280;58315;53.336;55.932;2023-07-29T11:16:05;98999.50;;;37.23;25.72
70730;BME280;58315;53.336;55.932;2023-07-29T11:18:33;99004.81;;;37.28;26.17
70730;BME280;58315;53.336;55.932;2023-07-29T11:21:01;99003.97;;;37.36;25.69
70730;BME280;58315;53.336;55.932;2023-07-29T11:23:34;99012.69;;;37.47;25.93
70730;BME280;58315;53.336;55.932;2023-07-29T11:26:02;98997.91;;;37.52;25.46
70730;BME280;58315;53.336;55.932;2023-07-29T11:28:29;98996.66;;;37.49;25.03
70730;BME280;58315;53.336;55.932;2023-07-29T11:30:56;98991.75;;;37.55;25.40
70730;BME280;58315;53.336;55.932;2023-07-29T11:33:27;98991.53;;;37.69;25.46
70730;BME280;58315;53.336;55.932;2023-07-29T11:35:54;99003.44;;;37.52;25.38
70730;BME280;58315;53.336;55.932;2023-07-29T11:38:22;98993.44;;;37.30;25.17
70730;BME280;58315;53.336;55.932;2023-07-29T11:41:01;98985.28;;;37.51;25.06
70730;BME280;58315;53.336;55.932;2023-07-29T11:43:35;98985.78;;;37.53;25.21
70730;BME280;58315;53.336;55.932;2023-07-29T11:46:02;98981.13;;;37.45;24.97
70730;BME280;58315;53.336;55.932;2023-07-29T11:48:32;98981.38;;;37.52;24.97
70730;BME280;58315;53.336;55.932;2023-07-29T11:50:58;98983.06;;;37.35;24.86
70730;BME280;58315;53.336;55.932;2023-07-29T11:53:28;98981.88;;;37.54;24.96
70730;BME280;58315;53.336;55.932;2023-07-29T11:55:54;98973.00;;;37.48;24.90
70730;BME280;58315;53.336;55.932;2023-07-29T11:58:21;98977.16;;;37.54;24.61
70730;BME280;58315;53.336;55.932;2023-07-29T12:00:48;98973.59;;;37.54;25.29
70730;BME280;58315;53.336;55.932;2023-07-29T12:03:14;98957.63;;;37.30;25.04
70730;BME280;58315;53.336;55.932;2023-07-29T12:05:43;98969.84;;;37.20;24.95
70730;BME280;58315;53.336;55.932;2023-07-29T12:08:09;98957.72;;;37.12;24.92
70730;BME280;58315;53.336;55.932;2023-07-29T12:10:36;98961.75;;;37.15;25.30
70730;BME280;58315;53.336;55.932;2023-07-29T12:13:02;98954.13;;;37.21;25.20
70730;BME280;58315;53.336;55.932;2023-07-29T12:15:29;98948.63;;;37.21;24.90
70730;BME280;58315;53.336;55.932;2023-07-29T12:17:57;98946.50;;;37.26;24.94
70730;BME280;58315;53.336;55.932;2023-07-29T12:20:24;98942.25;;;37.37;25.15
70730;BME280;58315;53.336;55.932;2023-07-29T12:22:56;98957.06;;;37.54;24.95
70730;BME280;58315;53.336;55.932;2023-07-29T12:25:23;98934.50;;;37.22;24.77
70730;BME280;58315;53.336;55.932;2023-07-29T12:27:49;98928.06;;;37.18;25.10
70730;BME280;58315;53.336;55.932;2023-07-29T12:30:16;98935.50;;;37.26;25.20
70730;BME280;58315;53.336;55.932;2023-07-29T12:32:44;98936.88;;;37.41;25.16
70730;BME280;58315;53.336;55.932;2023-07-29T12:35:11;98928.59;;;37.41;24.97
70730;BME280;58315;53.336;55.932;2023-07-29T12:37:37;98930.53;;;37.40;24.55
70730;BME280;58315;53.336;55.932;2023-07-29T12:40:05;98922.53;;;37.27;24.28
70730;BME280;58315;53.336;55.932;2023-07-29T12:42:31;98922.53;;;37.18;24.56
70730;BME280;58315;53.336;55.932;2023-07-29T12:44:58;98915.72;;;37.24;24.90
70730;BME280;58315;53.336;55.932;2023-07-29T12:47:24;98922.94;;;37.37;24.99
70730;BME280;58315;53.336;55.932;2023-07-29T12:49:50;98905.94;;;37.35;24.93
70730;BME280;58315;53.336;55.932;2023-07-29T12:52:16;98903.66;;;37.37;25.08
70730;BME280;58315;53.336;55.932;2023-07-29T12:54:42;98909.03;;;37.34;25.32
70730;BME280;58315;53.336;55.932;2023-07-29T12:57:10;98898.03;;;37.34;25.29
70730;BME280;58315;53.336;55.932;2023-07-29T12:59:36;98909.84;;;37.34;25.43
70730;BME280;58315;53.336;55.932;2023-07-29T13:02:03;98909.63;;;37.39;25.62
70730;BME280;58315;53.336;55.932;2023-07-29T13:04:28;98898.63;;;37.48;25.60
70730;BME280;58315;53.336;55.932;2023-07-29T13:06:54;98907.97;;;37.56;25.73
70730;BME280;58315;53.336;55.932;2023-07-29T13:09:22;98905.44;;;37.42;25.21
70730;BME280;58315;53.336;55.932;2023-07-29T13:11:48;98899.13;;;37.33;25.79
70730;BME280;58315;53.336;55.932;2023-07-29T13:14:14;98900.34;;;37.23;25.81
70730;BME280;58315;53.336;55.932;2023-07-29T13:16:40;98893.69;;;37.24;25.73
70730;BME280;58315;53.336;55.932;2023-07-29T13:19:06;98886.44;;;37.40;26.34
70730;BME280;58315;53.336;55.932;2023-07-29T13:21:32;98890.84;;;37.41;25.98
70730;BME280;58315;53.336;55.932;2023-07-29T13:23:59;98897.81;;;37.39;26.31
70730;BME280;58315;53.336;55.932;2023-07-29T13:26:25;98890.94;;;37.24;25.97
70730;BME280;58315;53.336;55.932;2023-07-29T13:28:51;98883.16;;;37.26;26.08
70730;BME280;58315;53.336;55.932;2023-07-29T13:31:17;98889.63;;;37.30;26.19
70730;BME280;58315;53.336;55.932;2023-07-29T13:33:43;98886.50;;;37.32;25.90